Time;durP1;ratioP1;P1;durP2;ratioP2;P2;SDS_P1;SDS_P2;PMS_P1;PMS_P2;Temp;Humidity;BMP_temperature;BMP_pressure;BME280_temperature;BME280_humidity;BME280_pressure;Samples;Min_cycle;Max_cycle;Signal;HPM_P1;HPM_P2
2022/05/12 00:02:42;;;;;;;;;;;;;;;;;;5091822;27;20287;-67
2022/05/12 00:05:08;;;;;;;;;;;;;;;;;;5091179;28;19995;-67
2022/05/12 00:08:42;;;;;;;;;;;;;;;;;;5091303;27;19912;-67
2022/05/12 00:11:08;;;;;;;;;;;;;;;;;;5091239;28;20337;-67
2022/05/12 00:15:25;;;;;;;;;;;;;;;;;;5070762;28;19916;-67
2022/05/12 00:17:51;;;;;;;;;;;;;;;;;;5071281;28;20453;-67
2022/05/12 00:20:17;;;;;;;;;;;;;;;;;;5070956;28;19987;-68
2022/05/12 00:22:43;;;;;;;;;;;;;;;;;;5070569;28;19999;-68
2022/05/12 00:27:03;;;;;;;;;;;;;;;;;;5091960;27;19916;-67
2022/05/12 00:31:51;;;;;;;;;;;;;;;;;;5091319;27;20391;-67
2022/05/12 00:34:17;;;;;;;;;;;;;;;;;;5091343;28;20011;-67
2022/05/12 00:36:43;;;;;;;;;;;;;;;;;;5090781;28;20003;-66
2022/05/12 00:39:09;;;;;;;;;;;;;;;;;;5091168;28;19912;-67
2022/05/12 00:41:35;;;;;;;;;;;;;;;;;;5091878;28;19908;-67
2022/05/12 00:44:02;;;;;;;;;;;;;;;;;;5091116;28;19918;-67
2022/05/12 00:46:28;;;;;;;;;;;;;;;;;;5091036;28;20337;-67
2022/05/12 00:50:16;;;;;;;;;;;;;;;;;;5090977;27;19917;-67
2022/05/12 00:52:42;;;;;;;;;;;;;;;;;;5091203;28;20376;-67
2022/05/12 00:55:08;;;;;;;;;;;;;;;;;;5091140;28;19991;-67
2022/05/12 00:57:34;;;;;;;;;;;;;;;;;;5090779;28;19908;-67
2022/05/12 01:03:35;;;;;;;;;;;;;;;;;;5090905;27;19923;-67
2022/05/12 01:06:02;;;;;;;;;;;;;;;;;;5091235;28;19948;-67
2022/05/12 01:11:58;;;;;;;;;;;;;;;;;;5090881;28;19916;-67
2022/05/12 01:14:24;;;;;;;;;;;;;;;;;;5091286;28;20011;-67
2022/05/12 01:16:50;;;;;;;;;;;;;;;;;;5090797;28;19944;-67
2022/05/12 01:20:33;;;;;;;;;;;;;;;;;;5092117;28;19987;-67
2022/05/12 01:23:55;;;;;;;;;;;;;;;;;;5091681;27;19912;-67
2022/05/12 01:27:20;;;;;;;;;;;;;;;;;;5091310;28;20293;-68
2022/05/12 01:29:46;;;;;;;;;;;;;;;;;;5091850;28;19995;-67
2022/05/12 01:32:12;;;;;;;;;;;;;;;;;;5090898;28;19956;-67
2022/05/12 01:34:38;;;;;;;;;;;;;;;;;;5091334;28;19979;-68
2022/05/12 01:38:26;;;;;;;;;;;;;;;;;;5091555;27;20296;-67
2022/05/12 01:40:52;;;;;;;;;;;;;;;;;;5091351;28;19916;-67
2022/05/12 01:43:18;;;;;;;;;;;;;;;;;;5091402;28;19946;-67
2022/05/12 01:45:44;;;;;;;;;;;;;;;;;;5090803;28;19908;-67
2022/05/12 01:51:44;;;;;;;;;;;;;;;;;;5091807;28;19918;-67
2022/05/12 01:54:10;;;;;;;;;;;;;;;;;;5090855;28;20352;-67
2022/05/12 01:56:36;;;;;;;;;;;;;;;;;;5091777;28;19935;-67
2022/05/12 02:01:44;;;;;;;;;;;;;;;;;;5091472;27;19922;-67
2022/05/12 02:04:10;;;;;;;;;;;;;;;;;;5091211;28;19955;-67
2022/05/12 02:06:36;;;;;;;;;;;;;;;;;;5090704;28;20293;-67
2022/05/12 02:09:02;;;;;;;;;;;;;;;;;;5091494;28;19915;-67
2022/05/12 02:11:28;;;;;;;;;;;;;;;;;;5091083;28;19909;-67
2022/05/12 02:13:54;;;;;;;;;;;;;;;;;;5090634;28;19912;-69
2022/05/12 02:16:55;;;;;;;;;;;;;;;;;;5091451;27;19923;-67
2022/05/12 02:20:28;;;;;;;;;;;;;;;;;;5111851;27;19916;-67
2022/05/12 02:22:54;;;;;;;;;;;;;;;;;;5111638;28;20006;-67
2022/05/12 02:25:20;;;;;;;;;;;;;;;;;;5111511;28;19994;-67
2022/05/12 02:27:46;;;;;;;;;;;;;;;;;;5111515;28;19911;-67
2022/05/12 02:35:13;;;;;;;;;;;;;;;;;;5090977;28;19917;-67
2022/05/12 02:38:35;;;;;;;;;;;;;;;;;;5092076;27;19916;-67
2022/05/12 02:43:25;;;;;;;;;;;;;;;;;;5090952;27;19916;-68
2022/05/12 02:45:51;;;;;;;;;;;;;;;;;;5091256;28;20013;-68
2022/05/12 02:50:07;;;;;;;;;;;;;;;;;;5090978;27;19923;-67
2022/05/12 02:52:33;;;;;;;;;;;;;;;;;;5091289;28;19935;-68
2022/05/12 02:55:00;;;;;;;;;;;;;;;;;;5091095;28;20366;-67
2022/05/12 02:58:02;;;;;;;;;;;;;;;;;;5111990;27;20015;-67
2022/05/12 03:00:28;;;;;;;;;;;;;;;;;;5111540;28;19958;-67
2022/05/12 03:02:54;;;;;;;;;;;;;;;;;;5111333;28;20372;-67
2022/05/12 03:05:20;;;;;;;;;;;;;;;;;;5111592;28;20011;-67
2022/05/12 03:07:46;;;;;;;;;;;;;;;;;;5111439;28;20372;-67
2022/05/12 03:10:12;;;;;;;;;;;;;;;;;;5111159;28;19908;-67
2022/05/12 03:12:38;;;;;;;;;;;;;;;;;;5111343;28;19908;-68
2022/05/12 03:15:04;;;;;;;;;;;;;;;;;;5111875;28;19908;-67
2022/05/12 03:17:29;;;;;;;;;;;;;;;;;;5110814;28;20400;-67
2022/05/12 03:19:55;;;;;;;;;;;;;;;;;;5111258;28;19908;-68
2022/05/12 03:22:21;;;;;;;;;;;;;;;;;;5111423;28;20386;-67
2022/05/12 03:24:47;;;;;;;;;;;;;;;;;;5110921;28;19912;-67
2022/05/12 03:27:14;;;;;;;;;;;;;;;;;;5111121;28;19912;-67
2022/05/12 03:29:40;;;;;;;;;;;;;;;;;;5111026;28;19918;-68
2022/05/12 03:32:10;;;;;;;;;;;;;;;;;;5110619;28;19994;-68
2022/05/12 03:34:36;;;;;;;;;;;;;;;;;;5110893;28;19907;-68
2022/05/12 03:37:02;;;;;;;;;;;;;;;;;;5110806;28;19916;-68
2022/05/12 03:39:28;;;;;;;;;;;;;;;;;;5110547;28;19936;-67
2022/05/12 03:41:54;;;;;;;;;;;;;;;;;;5111336;28;19909;-68
2022/05/12 03:47:24;;;;;;;;;;;;;;;;;;5047974;28;19916;-67
2022/05/12 03:49:50;;;;;;;;;;;;;;;;;;5048024;28;19951;-67
2022/05/12 03:52:16;;;;;;;;;;;;;;;;;;5076840;28;19915;-67
2022/05/12 03:54:42;;;;;;;;;;;;;;;;;;5110546;28;19908;-67
2022/05/12 03:57:08;;;;;;;;;;;;;;;;;;5110219;28;19959;-67
2022/05/12 03:59:34;;;;;;;;;;;;;;;;;;5110082;28;19954;-67
2022/05/12 04:02:00;;;;;;;;;;;;;;;;;;5110482;28;19952;-67
2022/05/12 04:04:26;;;;;;;;;;;;;;;;;;5110361;28;19999;-67
2022/05/12 04:06:52;;;;;;;;;;;;;;;;;;5110180;28;19991;-67
2022/05/12 04:09:18;;;;;;;;;;;;;;;;;;5096840;28;19915;-67
2022/05/12 04:11:44;;;;;;;;;;;;;;;;;;5096593;28;20244;-67
2022/05/12 04:14:10;;;;;;;;;;;;;;;;;;5096280;28;19912;-67
2022/05/12 04:16:36;;;;;;;;;;;;;;;;;;5096748;28;19916;-67
2022/05/12 04:19:06;;;;;;;;;;;;;;;;;;5096440;28;19942;-68
2022/05/12 04:21:34;;;;;;;;;;;;;;;;;;5096069;28;19908;-67
2022/05/12 04:24:00;;;;;;;;;;;;;;;;;;5096385;28;20341;-66
2022/05/12 04:26:26;;;;;;;;;;;;;;;;;;5096370;28;19915;-67
2022/05/12 04:28:52;;;;;;;;;;;;;;;;;;5096041;28;19939;-66
2022/05/12 04:31:18;;;;;;;;;;;;;;;;;;5096234;28;20268;-66
2022/05/12 04:36:29;;;;;;;;;;;;;;;;;;5096168;28;19919;-70
2022/05/12 04:40:10;;;;;;;;;;;;;;;;;;5091789;27;20381;-70
2022/05/12 04:42:36;;;;;;;;;;;;;;;;;;5090845;28;19918;-70
2022/05/12 04:45:02;;;;;;;;;;;;;;;;;;5091472;28;19999;-70
2022/05/12 04:47:28;;;;;;;;;;;;;;;;;;5091179;28;19944;-70
2022/05/12 04:51:44;;;;;;;;;;;;;;;;;;5091715;27;19923;-70
2022/05/12 04:54:10;;;;;;;;;;;;;;;;;;5091215;28;20011;-70
2022/05/12 05:07:31;;;;;;;;;;;;;;;;;;5090757;27;20403;-68
2022/05/12 05:09:57;;;;;;;;;;;;;;;;;;5089558;28;20003;-68
2022/05/12 05:12:23;;;;;;;;;;;;;;;;;;5088733;28;19991;-68
2022/05/12 05:14:49;;;;;;;;;;;;;;;;;;5089700;28;19962;-65
2022/05/12 05:18:06;;;;;;;;;;;;;;;;;;5089545;27;19923;-66
2022/05/12 05:23:59;;;;;;;;;;;;;;;;;;5087619;28;19913;-66
2022/05/12 05:26:25;;;;;;;;;;;;;;;;;;5080687;28;19919;-66
2022/05/12 05:33:16;;;;;;;;;;;;;;;;;;5088225;27;19916;-67
2022/05/12 05:35:42;;;;;;;;;;;;;;;;;;5087034;28;19919;-66
2022/05/12 05:38:08;;;;;;;;;;;;;;;;;;5087601;28;20350;-67
2022/05/12 05:40:34;;;;;;;;;;;;;;;;;;5087596;28;19908;-66
2022/05/12 05:43:00;;;;;;;;;;;;;;;;;;5067729;28;19996;-67
2022/05/12 05:50:12;;;;;;;;;;;;;;;;;;5088282;27;19916;-66
2022/05/12 05:56:47;;;;;;;;;;;;;;;;;;5109662;27;19916;-66
2022/05/12 05:59:13;;;;;;;;;;;;;;;;;;5109903;28;19948;-66
2022/05/12 06:03:14;;;;;;;;;;;;;;;;;;5089142;27;19922;-68
2022/05/12 06:08:05;;;;;;;;;;;;;;;;;;5110846;27;19922;-66
2022/05/12 06:15:30;;;;;;;;;;;;;;;;;;5090014;27;20406;-67
2022/05/12 06:17:56;;;;;;;;;;;;;;;;;;5081442;28;19956;-67
2022/05/12 06:20:22;;;;;;;;;;;;;;;;;;5070858;28;19948;-67
2022/05/12 06:22:48;;;;;;;;;;;;;;;;;;5070355;28;20272;-68
2022/05/12 06:25:48;;;;;;;;;;;;;;;;;;5130612;27;19920;-65
2022/05/12 06:28:52;;;;;;;;;;;;;;;;;;5090063;27;19916;-67
2022/05/12 06:32:08;;;;;;;;;;;;;;;;;;5087581;27;19916;-67
2022/05/12 06:34:34;;;;;;;;;;;;;;;;;;5087251;28;19919;-66
2022/05/12 06:41:46;;;;;;;;;;;;;;;;;;5077776;27;20284;-68
2022/05/12 06:44:12;;;;;;;;;;;;;;;;;;5065814;28;20015;-68
2022/05/12 06:46:40;;;;;;;;;;;;;;;;;;5084724;28;19912;-67
2022/05/12 06:52:03;;;;;;;;;;;;;;;;;;5087629;27;19920;-68
2022/05/12 06:56:35;;;;;;;;;;;;;;;;;;5079862;27;19916;-68
2022/05/12 06:59:37;;;;;;;;;;;;;;;;;;5087706;27;19916;-68
2022/05/12 07:02:04;;;;;;;;;;;;;;;;;;5089326;28;19948;-68
2022/05/12 07:04:31;;;;;;;;;;;;;;;;;;5087989;28;20566;-66
2022/05/12 07:06:57;;;;;;;;;;;;;;;;;;5087769;28;20037;-67
2022/05/12 07:09:23;;;;;;;;;;;;;;;;;;5087567;28;19916;-66
2022/05/12 07:11:49;;;;;;;;;;;;;;;;;;5087576;28;19955;-66
2022/05/12 07:15:37;;;;;;;;;;;;;;;;;;5085800;27;19923;-68
2022/05/12 07:27:10;;;;;;;;;;;;;;;;;;5089301;27;19916;-66
2022/05/12 07:29:37;;;;;;;;;;;;;;;;;;5086948;28;19944;-66
2022/05/12 07:32:03;;;;;;;;;;;;;;;;;;5086796;28;19912;-67
2022/05/12 07:39:12;;;;;;;;;;;;;;;;;;5085276;27;19920;-68
2022/05/12 07:41:41;;;;;;;;;;;;;;;;;;5086543;28;20316;-67
2022/05/12 07:44:07;;;;;;;;;;;;;;;;;;5085612;28;20424;-68
2022/05/12 07:48:06;;;;;;;;;;;;;;;;;;5140003;27;19915;-68
2022/05/12 07:52:20;;;;;;;;;;;;;;;;;;5138344;27;19988;-68
2022/05/12 07:56:55;;;;;;;;;;;;;;;;;;5115746;27;20388;-67
2022/05/12 07:59:21;;;;;;;;;;;;;;;;;;5102703;28;19966;-67
2022/05/12 08:01:48;;;;;;;;;;;;;;;;;;5101213;28;19945;-67
2022/05/12 08:04:14;;;;;;;;;;;;;;;;;;5108983;28;19912;-67
2022/05/12 08:06:40;;;;;;;;;;;;;;;;;;5108812;28;19919;-67
2022/05/12 08:09:06;;;;;;;;;;;;;;;;;;5093066;28;19920;-67
2022/05/12 08:11:32;;;;;;;;;;;;;;;;;;5107129;28;19912;-67
2022/05/12 08:13:58;;;;;;;;;;;;;;;;;;5105027;28;19984;-68
2022/05/12 08:16:24;;;;;;;;;;;;;;;;;;5110422;28;19924;-67
2022/05/12 08:20:08;;;;;;;;;;;;;;;;;;5088805;27;19917;-67
2022/05/12 08:22:34;;;;;;;;;;;;;;;;;;5090029;28;19920;-67
2022/05/12 08:25:00;;;;;;;;;;;;;;;;;;5090436;28;20363;-67
2022/05/12 08:27:26;;;;;;;;;;;;;;;;;;5089806;28;19908;-67
2022/05/12 08:29:52;;;;;;;;;;;;;;;;;;5090097;28;19958;-66
2022/05/12 08:32:18;;;;;;;;;;;;;;;;;;5089151;28;19959;-67
2022/05/12 08:34:44;;;;;;;;;;;;;;;;;;5088169;28;20272;-67
2022/05/12 08:37:10;;;;;;;;;;;;;;;;;;5089362;28;19915;-67
2022/05/12 08:39:36;;;;;;;;;;;;;;;;;;5086495;28;19970;-67
2022/05/12 08:42:03;;;;;;;;;;;;;;;;;;5085039;28;19916;-67
2022/05/12 08:44:29;;;;;;;;;;;;;;;;;;5088401;28;19920;-67
2022/05/12 08:46:55;;;;;;;;;;;;;;;;;;5087569;28;19995;-67
2022/05/12 08:51:16;;;;;;;;;;;;;;;;;;5156409;27;19919;-67
2022/05/12 08:54:04;;;;;;;;;;;;;;;;;;5085707;27;20388;-67
2022/05/12 08:56:30;;;;;;;;;;;;;;;;;;5055416;28;19913;-67
2022/05/12 08:58:56;;;;;;;;;;;;;;;;;;5049979;28;19932;-67
2022/05/12 09:01:22;;;;;;;;;;;;;;;;;;5048383;28;19917;-67
2022/05/12 09:04:20;;;;;;;;;;;;;;;;;;5089749;27;19920;-68
2022/05/12 09:08:11;;;;;;;;;;;;;;;;;;5085692;27;19931;-66
2022/05/12 09:11:54;;;;;;;;;;;;;;;;;;5089815;27;19920;-66
2022/05/12 09:16:11;;;;;;;;;;;;;;;;;;5089433;27;19912;-68
2022/05/12 09:18:37;;;;;;;;;;;;;;;;;;5087724;28;19938;-67
2022/05/12 09:21:03;;;;;;;;;;;;;;;;;;5088162;28;19913;-67
2022/05/12 09:23:29;;;;;;;;;;;;;;;;;;5085482;28;20007;-68
2022/05/12 09:25:58;;;;;;;;;;;;;;;;;;5087316;28;20011;-67
2022/05/12 09:28:24;;;;;;;;;;;;;;;;;;5086354;28;19912;-68
2022/05/12 09:30:50;;;;;;;;;;;;;;;;;;5086552;28;19961;-67
2022/05/12 09:33:16;;;;;;;;;;;;;;;;;;5083556;28;19912;-67
2022/05/12 09:35:42;;;;;;;;;;;;;;;;;;5083362;28;19948;-66
2022/05/12 09:40:14;;;;;;;;;;;;;;;;;;5162001;27;19911;-63
2022/05/12 09:42:40;;;;;;;;;;;;;;;;;;5146056;27;19911;-65
2022/05/12 09:45:07;;;;;;;;;;;;;;;;;;5147340;27;19952;-66
2022/05/12 09:47:34;;;;;;;;;;;;;;;;;;5128671;27;19997;-65
2022/05/12 09:50:15;;;;;;;;;;;;;;;;;;5145695;27;20010;-65
2022/05/12 09:52:42;;;;;;;;;;;;;;;;;;5147147;27;19920;-63
2022/05/12 09:55:08;;;;;;;;;;;;;;;;;;5148092;27;20626;-63
2022/05/12 09:57:35;;;;;;;;;;;;;;;;;;5148385;27;19915;-63
2022/05/12 10:00:03;;;;;;;;;;;;;;;;;;5131047;27;19937;-64
2022/05/12 10:08:37;;;;;;;;;;;;;;;;;;5085433;28;20288;-63
2022/05/12 10:11:03;;;;;;;;;;;;;;;;;;5070327;28;20003;-64
2022/05/12 10:14:54;;;;;;;;;;;;;;;;;;5111215;27;20280;-65
2022/05/12 10:17:20;;;;;;;;;;;;;;;;;;5107896;28;20446;-65
2022/05/12 10:19:56;;;;;;;;;;;;;;;;;;5087236;28;19923;-64
2022/05/12 10:22:22;;;;;;;;;;;;;;;;;;5088028;28;20490;-65
2022/05/12 10:24:50;;;;;;;;;;;;;;;;;;5087017;28;20471;-66
2022/05/12 10:27:16;;;;;;;;;;;;;;;;;;5086574;28;19916;-65
2022/05/12 10:30:21;;;;;;;;;;;;;;;;;;5085350;27;20543;-63
2022/05/12 10:32:47;;;;;;;;;;;;;;;;;;5085316;28;19912;-64
2022/05/12 10:36:09;;;;;;;;;;;;;;;;;;5086885;27;19917;-69
2022/05/12 10:38:35;;;;;;;;;;;;;;;;;;5085399;28;20442;-68
2022/05/12 10:41:01;;;;;;;;;;;;;;;;;;5086448;28;19984;-69
2022/05/12 10:43:27;;;;;;;;;;;;;;;;;;5087589;28;19908;-68
2022/05/12 10:45:53;;;;;;;;;;;;;;;;;;5090321;28;19965;-69
2022/05/12 10:48:19;;;;;;;;;;;;;;;;;;5090165;28;20007;-69
2022/05/12 10:50:45;;;;;;;;;;;;;;;;;;5089542;28;19909;-68
2022/05/12 10:53:11;;;;;;;;;;;;;;;;;;5088657;28;19912;-69
2022/05/12 10:55:37;;;;;;;;;;;;;;;;;;5086677;28;19917;-68
2022/05/12 10:58:04;;;;;;;;;;;;;;;;;;5088372;28;19913;-68
2022/05/12 11:00:30;;;;;;;;;;;;;;;;;;5090289;28;19915;-67
2022/05/12 11:02:56;;;;;;;;;;;;;;;;;;5089731;28;19913;-68
2022/05/12 11:05:22;;;;;;;;;;;;;;;;;;5089719;28;20017;-69
2022/05/12 11:07:48;;;;;;;;;;;;;;;;;;5087440;28;20062;-69
2022/05/12 11:10:14;;;;;;;;;;;;;;;;;;5087626;28;20448;-68
2022/05/12 11:12:40;;;;;;;;;;;;;;;;;;5086031;28;19908;-68
2022/05/12 11:15:06;;;;;;;;;;;;;;;;;;5086807;28;19970;-68
2022/05/12 11:17:32;;;;;;;;;;;;;;;;;;5087004;28;19916;-68
2022/05/12 11:19:58;;;;;;;;;;;;;;;;;;5086501;28;19909;-69
2022/05/12 11:22:24;;;;;;;;;;;;;;;;;;5087509;28;19992;-69
2022/05/12 11:24:50;;;;;;;;;;;;;;;;;;5088578;28;19909;-70
2022/05/12 11:27:16;;;;;;;;;;;;;;;;;;5087674;28;20319;-69
2022/05/12 11:29:44;;;;;;;;;;;;;;;;;;5089525;28;19908;-68
2022/05/12 11:32:10;;;;;;;;;;;;;;;;;;5089839;28;19915;-68
2022/05/12 11:34:36;;;;;;;;;;;;;;;;;;5097533;28;19920;-68
2022/05/12 11:37:02;;;;;;;;;;;;;;;;;;5109940;28;19930;-68
2022/05/12 11:39:28;;;;;;;;;;;;;;;;;;5110187;28;19909;-68
2022/05/12 11:41:54;;;;;;;;;;;;;;;;;;5109432;28;20006;-69
2022/05/12 11:44:27;;;;;;;;;;;;;;;;;;5108879;28;20037;-69
2022/05/12 11:46:53;;;;;;;;;;;;;;;;;;5081368;28;19999;-68
2022/05/12 11:49:19;;;;;;;;;;;;;;;;;;5095964;28;19912;-68
2022/05/12 11:51:45;;;;;;;;;;;;;;;;;;5094674;28;19915;-68
2022/05/12 11:54:11;;;;;;;;;;;;;;;;;;5095469;28;20356;-69
2022/05/12 11:56:37;;;;;;;;;;;;;;;;;;5078209;28;19919;-69
2022/05/12 11:59:03;;;;;;;;;;;;;;;;;;5095784;28;20288;-68
2022/05/12 12:01:29;;;;;;;;;;;;;;;;;;5096184;28;19920;-70
2022/05/12 12:03:55;;;;;;;;;;;;;;;;;;5095414;28;20336;-72
2022/05/12 12:06:21;;;;;;;;;;;;;;;;;;5095202;28;19962;-72
2022/05/12 12:08:47;;;;;;;;;;;;;;;;;;5095497;28;19940;-72
2022/05/12 12:11:13;;;;;;;;;;;;;;;;;;5095173;28;20775;-71
2022/05/12 12:13:39;;;;;;;;;;;;;;;;;;5077475;28;19912;-73
2022/05/12 12:16:05;;;;;;;;;;;;;;;;;;5077522;28;20262;-72
2022/05/12 12:18:31;;;;;;;;;;;;;;;;;;5095133;28;19908;-72
2022/05/12 12:20:57;;;;;;;;;;;;;;;;;;5095605;28;19915;-72
2022/05/12 12:23:24;;;;;;;;;;;;;;;;;;5094797;28;19909;-72
2022/05/12 12:25:49;;;;;;;;;;;;;;;;;;5093994;28;19914;-74
2022/05/12 12:28:16;;;;;;;;;;;;;;;;;;5095612;28;20006;-73
2022/05/12 12:30:42;;;;;;;;;;;;;;;;;;5094991;28;19934;-72
2022/05/12 12:33:08;;;;;;;;;;;;;;;;;;5095287;28;20440;-72
2022/05/12 12:35:36;;;;;;;;;;;;;;;;;;5095157;28;19920;-72
2022/05/12 12:38:02;;;;;;;;;;;;;;;;;;5095538;28;20403;-70
2022/05/12 12:40:28;;;;;;;;;;;;;;;;;;5095169;28;19999;-70
2022/05/12 12:42:54;;;;;;;;;;;;;;;;;;5095572;28;20396;-70
2022/05/12 12:45:20;;;;;;;;;;;;;;;;;;5095506;28;20012;-70
2022/05/12 12:47:47;;;;;;;;;;;;;;;;;;5094937;28;19908;-70
2022/05/12 12:50:13;;;;;;;;;;;;;;;;;;5095207;28;20287;-70
2022/05/12 12:52:39;;;;;;;;;;;;;;;;;;5095952;28;19912;-71
2022/05/12 12:57:49;;;;;;;;;;;;;;;;;;5094307;28;19980;-71
2022/05/12 13:00:15;;;;;;;;;;;;;;;;;;5095064;28;20412;-70
2022/05/12 13:02:41;;;;;;;;;;;;;;;;;;5095355;28;20010;-71
2022/05/12 13:05:08;;;;;;;;;;;;;;;;;;5093790;28;20048;-70
2022/05/12 13:07:34;;;;;;;;;;;;;;;;;;5094814;28;19908;-71
2022/05/12 13:09:59;;;;;;;;;;;;;;;;;;5094964;28;19916;-71
2022/05/12 13:12:29;;;;;;;;;;;;;;;;;;5094979;28;19908;-71
2022/05/12 13:14:55;;;;;;;;;;;;;;;;;;5094506;28;20011;-71
2022/05/12 13:17:21;;;;;;;;;;;;;;;;;;5094898;28;19912;-71
2022/05/12 13:19:47;;;;;;;;;;;;;;;;;;5094824;28;19908;-71
2022/05/12 13:22:13;;;;;;;;;;;;;;;;;;5094340;28;19939;-72
2022/05/12 13:24:39;;;;;;;;;;;;;;;;;;5094800;28;19943;-72
2022/05/12 13:27:05;;;;;;;;;;;;;;;;;;5095010;28;19954;-72
2022/05/12 13:29:37;;;;;;;3.22;1.70;;;;;;;;;;5093690;28;20725;-72
2022/05/12 13:32:13;;;;;;;3.67;2.05;;;;;;;;;;5094277;28;20024;-72
2022/05/12 13:34:40;;;;;;;2.67;1.55;;;;;;;;;;5093988;28;20052;-71
2022/05/12 13:37:14;;;;;;;3.40;1.45;;;;;;;;;;5093785;28;20031;-71
2022/05/12 13:39:48;;;;;;;3.05;1.60;;;;;;;;;;5094203;28;20024;-71
2022/05/12 13:42:16;;;;;;;3.13;1.80;;;;;;;;;;5094050;28;20016;-72
2022/05/12 13:44:42;;;;;;;4.68;2.05;;;;;;;;;;5093604;28;20375;-72
2022/05/12 13:47:08;;;;;;;2.70;1.75;;;;;;;;;;5094010;28;20028;-72
2022/05/12 13:49:34;;;;;;;2.47;1.60;;;;;;;;;;5093607;28;20542;-73
2022/05/12 13:52:09;;;;;;;2.60;1.63;;;;;;;;;;5093826;28;20051;-72
2022/05/12 13:54:37;;;;;;;3.83;1.95;;;;;;;;;;5093845;28;20051;-72
2022/05/12 13:57:20;;;;;;;5.38;2.17;;;;;;;;;;5093706;28;20027;-72
2022/05/12 13:59:54;;;;;;;2.85;1.77;;;;;;;;;;5094042;28;20021;-71
2022/05/12 14:02:33;;;;;;;2.78;1.60;;;;;;;;;;5093722;28;20078;-72
2022/05/12 14:05:06;;;;;;;3.28;1.50;;;;;;;;;;5093364;28;20103;-72
2022/05/12 14:07:33;;;;;;;3.55;1.77;;;;;;;;;;5094233;28;20031;-72
2022/05/12 14:10:10;;;;;;;4.22;1.60;;;;;;;;;;5093325;28;20031;-72
2022/05/12 14:19:13;;;;;;;6.30;1.85;;;;;;;;;;5093213;28;20020;-72
2022/05/12 14:20:52;;;;;;;2.13;1.30;;;;;;;;;;5093466;28;20047;-72
2022/05/12 14:23:18;;;;;;;3.65;1.42;;;;;;;;;;5093401;28;20054;-72
2022/05/12 14:25:44;;;;;;;3.33;1.70;;;;;;;;;;5093185;28;20039;-72
2022/05/12 14:28:10;;;;;;;4.63;1.70;;;;;;;;;;5093185;28;20064;-73
2022/05/12 14:30:36;;;;;;;3.88;1.90;;;;;;;;;;5093314;28;20465;-73
2022/05/12 14:33:04;;;;;;;1.33;1.08;;;;;;;;;;5092961;28;20020;-73
2022/05/12 14:35:31;;;;;;;3.85;1.48;;;;;;;;;;5093116;28;20518;-72
2022/05/12 14:37:57;;;;;;;3.55;1.65;;;;;;;;;;5093473;28;20058;-72
2022/05/12 14:40:26;;;;;;;2.15;1.17;;;;;;;;;;5091495;28;20490;-72
2022/05/12 14:42:53;;;;;;;3.85;1.33;;;;;;;;;;5093333;28;20035;-73
2022/05/12 14:45:20;;;;;;;2.35;1.38;;;;;;;;;;5093113;28;20484;-73
2022/05/12 14:47:50;;;;;;;2.63;1.55;;;;;;;;;;5092774;28;20032;-72
2022/05/12 14:50:17;;;;;;;3.58;1.92;;;;;;;;;;5093528;28;20392;-73
2022/05/12 14:52:43;;;;;;;3.53;1.20;;;;;;;;;;5092732;28;20473;-73
2022/05/12 14:55:10;;;;;;;2.38;1.40;;;;;;;;;;5093090;28;20044;-72
2022/05/12 14:57:36;;;;;;;2.08;1.55;;;;;;;;;;5093102;28;20020;-72
2022/05/12 15:00:03;;;;;;;2.25;1.35;;;;;;;;;;5092692;28;20380;-71
2022/05/12 15:02:31;;;;;;;2.78;1.25;;;;;;;;;;5093028;28;20043;-73
2022/05/12 15:04:57;;;;;;;2.22;1.58;;;;;;;;;;5093008;28;20028;-71
2022/05/12 15:07:23;;;;;;;2.65;1.50;;;;;;;;;;5093086;28;20095;-71
2022/05/12 15:09:50;;;;;;;2.85;1.38;;;;;;;;;;5092996;28;20028;-71
2022/05/12 15:12:17;;;;;;;2.58;1.38;;;;;;;;;;5093049;28;20016;-72
2022/05/12 15:14:44;;;;;;;3.25;1.60;;;;;;;;;;5092451;28;20032;-72
2022/05/12 15:17:12;;;;;;;3.15;1.55;;;;;;;;;;5092956;28;20027;-72
2022/05/12 15:19:39;;;;;;;3.38;1.45;;;;;;;;;;5092739;28;20028;-72
2022/05/12 15:22:06;;;;;;;3.88;1.35;;;;;;;;;;5094816;28;20024;-73
2022/05/12 15:24:32;;;;;;;2.80;1.42;;;;;;;;;;5096554;28;20024;-72
2022/05/12 15:27:04;;;;;;;2.45;1.77;;;;;;;;;;5096645;28;20035;-72
2022/05/12 15:29:30;;;;;;;3.47;1.50;;;;;;;;;;5096291;28;20024;-72
2022/05/12 15:31:56;;;;;;;2.03;1.25;;;;;;;;;;5095272;28;20028;-73
2022/05/12 15:34:24;;;;;;;2.78;1.33;;;;;;;;;;5096261;28;20131;-72
2022/05/12 15:36:52;;;;;;;3.30;1.27;;;;;;;;;;5095970;28;20032;-72
2022/05/12 15:39:19;;;;;;;4.13;1.40;;;;;;;;;;5096648;28;20019;-72
2022/05/12 15:41:46;;;;;;;3.15;1.27;;;;;;;;;;5096515;28;20065;-72
2022/05/12 15:44:13;;;;;;;2.97;1.20;;;;;;;;;;5096033;28;20058;-72
2022/05/12 15:46:42;;;;;;;3.75;1.40;;;;;;;;;;5094963;28;20028;-72
2022/05/12 15:49:23;;;;;;;4.50;1.20;;;;;;;;;;5095975;28;20091;-72
2022/05/12 15:51:49;;;;;;;2.33;1.40;;;;;;;;;;5096511;28;20020;-72
2022/05/12 15:54:16;;;;;;;3.45;1.30;;;;;;;;;;5096120;28;20404;-72
2022/05/12 15:56:42;;;;;;;2.42;1.40;;;;;;;;;;5094400;28;20036;-72
2022/05/12 15:59:09;;;;;;;3.97;1.23;;;;;;;;;;5096060;28;20362;-72
2022/05/12 16:01:35;;;;;;;4.57;1.65;;;;;;;;;;5095954;28;20106;-72
2022/05/12 16:04:01;;;;;;;2.40;1.23;;;;;;;;;;5095695;28;20093;-73
2022/05/12 16:06:29;;;;;;;2.58;1.48;;;;;;;;;;5096069;28;20031;-72
2022/05/12 16:08:56;;;;;;;3.85;1.40;;;;;;;;;;5095594;28;20157;-72
2022/05/12 16:11:37;;;;;;;2.45;1.55;;;;;;;;;;5095340;28;20056;-71
2022/05/12 16:14:06;;;;;;;1.88;1.20;;;;;;;;;;5096212;28;20500;-72
2022/05/12 16:16:32;;;;;;;2.63;1.08;;;;;;;;;;5095589;28;20028;-72
2022/05/12 16:18:58;;;;;;;2.95;1.30;;;;;;;;;;5095217;28;20020;-72
2022/05/12 16:21:24;;;;;;;2.80;1.42;;;;;;;;;;5095505;28;20024;-73
2022/05/12 16:23:51;;;;;;;2.55;1.40;;;;;;;;;;5095418;28;20020;-73
2022/05/12 16:26:17;;;;;;;2.72;1.20;;;;;;;;;;5095143;28;20020;-73
2022/05/12 16:28:44;;;;;;;4.95;1.58;;;;;;;;;;5095463;28;20024;-73
2022/05/12 16:31:12;;;;;;;2.92;1.70;;;;;;;;;;5095162;28;20097;-73
2022/05/12 16:33:40;;;;;;;2.83;1.48;;;;;;;;;;5095251;28;20048;-72
2022/05/12 16:36:06;;;;;;;3.63;1.38;;;;;;;;;;5094937;28;20051;-72
2022/05/12 16:38:37;;;;;;;3.40;1.58;;;;;;;;;;5094836;28;20020;-72
2022/05/12 16:41:07;;;;;;;2.88;1.30;;;;;;;;;;5095380;28;20028;-73
2022/05/12 16:43:33;;;;;;;2.78;1.35;;;;;;;;;;5095174;28;20024;-72
2022/05/12 16:45:59;;;;;;;5.63;1.60;;;;;;;;;;5094523;28;20499;-72
2022/05/12 16:48:26;;;;;;;4.53;1.65;;;;;;;;;;5095033;28;20027;-72
2022/05/12 16:50:53;;;;;;;6.13;2.00;;;;;;;;;;5094932;28;20039;-72
2022/05/12 16:53:20;;;;;;;2.53;1.48;;;;;;;;;;5094583;28;20031;-71
2022/05/12 16:55:46;;;;;;;2.92;1.75;;;;;;;;;;5094738;28;20036;-72
2022/05/12 16:58:12;;;;;;;3.17;1.55;;;;;;;;;;5094877;28;20016;-72
2022/05/12 17:00:39;;;;;;;2.65;1.60;;;;;;;;;;5094445;28;20083;-71
2022/05/12 17:03:05;;;;;;;2.47;1.40;;;;;;;;;;5094729;28;20043;-72
2022/05/12 17:05:31;;;;;;;2.50;1.42;;;;;;;;;;5094961;28;20102;-72
2022/05/12 17:07:57;;;;;;;1.88;1.30;;;;;;;;;;5094357;28;20046;-72
2022/05/12 17:10:24;;;;;;;5.45;1.88;;;;;;;;;;5094639;28;20024;-71
2022/05/12 17:12:50;;;;;;;3.92;2.05;;;;;;;;;;5093231;28;20024;-71
2022/05/12 17:15:18;;;;;;;7.38;2.28;;;;;;;;;;5094017;28;20032;-72
2022/05/12 17:17:44;;;;;;;6.07;3.00;;;;;;;;;;5094483;28;20119;-72
2022/05/12 17:21:33;;;;;;;3.97;2.20;;;;;;;;;;5110990;27;20393;-72
2022/05/12 17:24:01;;;;;;;6.18;2.22;;;;;;;;;;5111027;28;20020;-73
2022/05/12 17:26:27;;;;;;;5.05;2.47;;;;;;;;;;5111586;28;20020;-73
2022/05/12 17:28:54;;;;;;;6.25;2.70;;;;;;;;;;5126475;28;20547;-73
2022/05/12 17:31:20;;;;;;;5.60;2.80;;;;;;;;;;5110982;28;20116;-72
2022/05/12 17:33:47;;;;;;;7.38;3.00;;;;;;;;;;5111019;28;20471;-72
2022/05/12 17:38:22;;;;;;;9.30;2.75;;;;;;;;;;5111849;27;20419;-72
2022/05/12 17:40:54;;;;;;;10.27;3.22;;;;;;;;;;5109784;28;20032;-73
2022/05/12 17:43:20;;;;;;;5.32;2.50;;;;;;;;;;5110732;28;20050;-72
2022/05/12 17:45:48;;;;;;;6.95;3.03;;;;;;;;;;5111100;28;20028;-73
2022/05/12 17:48:15;;;;;;;8.80;3.83;;;;;;;;;;5110985;28;20028;-72
2022/05/12 17:50:41;;;;;;;8.70;3.63;;;;;;;;;;5110672;28;20024;-72
2022/05/12 17:53:07;;;;;;;9.10;2.80;;;;;;;;;;5110919;28;20051;-73
2022/05/12 17:55:34;;;;;;;7.63;4.20;;;;;;;;;;5110354;28;20028;-74
2022/05/12 17:58:34;;;;;;;5.72;3.10;;;;;;;;;;5111946;27;20405;-72
2022/05/12 18:01:00;;;;;;;5.85;2.67;;;;;;;;;;5111043;28;20535;-72
2022/05/12 18:04:40;;;;;;;7.40;3.13;;;;;;;;;;5110837;27;20911;-73
2022/05/12 18:07:08;;;;;;;8.40;2.80;;;;;;;;;;5111194;28;20042;-73
2022/05/12 18:09:34;;;;;;;4.53;2.72;;;;;;;;;;5109646;28;20024;-73
2022/05/12 18:12:01;;;;;;;5.45;2.58;;;;;;;;;;5111032;28;20034;-73
2022/05/12 18:14:27;;;;;;;5.93;3.20;;;;;;;;;;5111174;28;20065;-73
2022/05/12 18:20:55;;;;;;;5.00;2.53;;;;;;;;;;5131952;27;20115;-73
2022/05/12 18:24:16;;;;;;;5.00;3.05;;;;;;;;;;5111048;27;20392;-74
2022/05/12 18:29:11;;;;;;;6.05;3.17;;;;;;;;;;5111883;27;20393;-73
2022/05/12 18:31:39;;;;;;;5.40;3.13;;;;;;;;;;5110644;28;20089;-73
2022/05/12 18:34:06;;;;;;;4.88;2.85;;;;;;;;;;5110451;28;20023;-72
2022/05/12 18:36:33;;;;;;;8.00;2.90;;;;;;;;;;5110875;28;20031;-72
2022/05/12 18:39:00;;;;;;;7.43;3.05;;;;;;;;;;5110594;28;20027;-74
2022/05/12 18:41:28;;;;;;;5.65;3.05;;;;;;;;;;5110891;28;20426;-74